Big Moose, New York
Current Conditions -  °F | °C
As of 10:58 AM on Saturday 25 Oct 2014 (Local Time) from KGTB Reporting Station
Broken Clouds Broken Clouds  
Wind Chill: 12°   Ceiling: 5500
Heat Index: 12°   Visibility: 10mi
Dew Point:   Wind: 15mph
Humidity: 73%   Direction: 220°SW
Pressure: 29.72"   Gusts: NA
Location:  43.8364°N, 74.9967°W
Report Text: KGTB 251458Z AUTO 22013KT 10SM FEW036 BKN055 12/08 A2972 RMK AO2 SLP066 T01230075 57026
Loading
Personal Weather Stations






























Interactive Weather Map
Tropical Storm Tracking
New forecast layout! Learn more

10-Day Weather Forecast

Advertisements
Track Severe Weather on mobile